createdAt,value
2023-05-02T00:04:19.525Z,53.66
2023-05-02T00:09:23.559Z,54.35
2023-05-02T00:14:28.303Z,54.49
2023-05-02T00:19:31.551Z,54.54
2023-05-02T00:24:34.787Z,54.53
2023-05-02T00:29:38.232Z,54.83
2023-05-02T00:34:41.759Z,55.15
2023-05-02T00:40:08.398Z,55.01
2023-05-02T00:45:12.728Z,55.29
2023-05-02T00:50:18.104Z,55.51
2023-05-02T00:55:21.313Z,55.72
2023-05-02T01:00:31.646Z,55.89
2023-05-02T01:05:50.445Z,56.05
2023-05-02T01:11:13.312Z,56.34
2023-05-02T01:19:58.660Z,57.96
2023-05-02T01:25:21.190Z,57.29
2023-05-02T01:30:28.448Z,57.11
2023-05-02T01:35:36.003Z,56.87
2023-05-02T01:40:40.700Z,57.32
2023-05-02T01:45:45.994Z,57.16
2023-05-02T01:50:50.747Z,57.35
2023-05-02T01:55:55.854Z,57.76
2023-05-02T02:01:01.832Z,57.40
2023-05-02T02:06:06.896Z,57.49
2023-05-02T02:11:13.637Z,57.64
2023-05-02T02:16:24.947Z,57.91
2023-05-02T02:21:33.062Z,58.26
2023-05-02T02:26:37.852Z,57.84
2023-05-02T02:31:41.031Z,57.96
2023-05-02T02:36:51.406Z,58.20
2023-05-02T02:42:11.384Z,58.35
2023-05-02T02:47:42.945Z,58.53
2023-05-02T02:52:59.586Z,58.76
2023-05-02T02:58:17.830Z,59.10
2023-05-02T03:03:29.225Z,59.39
2023-05-02T03:08:50.658Z,59.41
2023-05-02T03:13:54.376Z,59.36
2023-05-02T03:18:58.615Z,59.75
2023-05-02T03:24:04.324Z,59.65
2023-05-02T03:29:08.398Z,60.00
2023-05-02T03:34:13.492Z,59.83
2023-05-02T03:39:17.613Z,59.86
2023-05-02T03:44:21.106Z,59.97
2023-05-02T03:49:24.329Z,60.04
2023-05-02T03:54:28.137Z,60.07
2023-05-02T03:59:35.651Z,60.11
2023-05-02T04:04:44.064Z,60.19
2023-05-02T04:09:50.413Z,60.20
2023-05-02T04:14:53.894Z,60.43
2023-05-02T04:20:03.152Z,60.92
2023-05-02T04:25:09.828Z,60.99
2023-05-02T04:30:16.111Z,61.11
2023-05-02T04:35:23.213Z,60.83
2023-05-02T04:40:26.576Z,60.80
2023-05-02T04:45:37.386Z,60.77
2023-05-02T04:50:46.754Z,60.99
2023-05-02T04:55:50.325Z,61.22
2023-05-02T05:00:55.008Z,61.04
2023-05-02T05:05:58.085Z,60.76
2023-05-02T05:11:02.419Z,60.55
2023-05-02T05:16:06.848Z,60.52
2023-05-02T05:21:11.538Z,60.52
2023-05-02T05:26:17.216Z,60.07
2023-05-02T05:31:25.107Z,59.02
2023-05-02T05:36:31.678Z,58.88
2023-05-02T05:41:36.064Z,57.51
2023-05-02T05:46:42.655Z,57.18
2023-05-02T05:51:47.995Z,55.28
2023-05-02T05:56:53.058Z,52.99
2023-05-02T06:01:57.804Z,53.07
2023-05-02T06:07:01.926Z,52.01
2023-05-02T06:12:06.362Z,50.82
2023-05-02T06:17:10.492Z,48.92
2023-05-02T06:22:14.300Z,47.76
2023-05-02T06:27:17.507Z,47.02
2023-05-02T06:32:21.999Z,46.73
2023-05-02T06:37:25.151Z,46.81
2023-05-02T06:42:28.380Z,47.30
2023-05-02T06:47:31.920Z,46.54
2023-05-02T06:52:35.708Z,46.44
2023-05-02T06:57:38.872Z,46.56
2023-05-02T07:02:42.285Z,46.16
2023-05-02T07:07:45.963Z,45.98
2023-05-02T07:12:49.175Z,45.40
2023-05-02T07:17:53.621Z,45.21
2023-05-02T07:22:57.102Z,45.40
2023-05-02T07:28:00.322Z,43.94
2023-05-02T07:33:03.574Z,44.37
2023-05-02T07:38:07.098Z,43.39
2023-05-02T07:43:11.277Z,42.85
2023-05-02T07:48:14.821Z,42.98
2023-05-02T07:53:18.267Z,41.95
2023-05-02T07:58:21.411Z,42.24
2023-05-02T08:03:24.759Z,43.48
2023-05-02T08:08:28.443Z,45.52
2023-05-02T08:13:31.660Z,43.36
2023-05-02T08:18:34.836Z,41.81
2023-05-02T08:23:38.077Z,41.57
2023-05-02T08:28:42.499Z,41.19
2023-05-02T08:33:48.519Z,41.68
2023-05-02T08:38:52.056Z,42.02
2023-05-02T08:43:56.734Z,41.83
2023-05-02T08:49:01.915Z,41.76
2023-05-02T08:54:10.003Z,42.04
2023-05-02T08:59:13.128Z,41.56
2023-05-02T09:04:18.574Z,41.88
2023-05-02T09:09:21.688Z,42.07
2023-05-02T09:14:24.900Z,42.45
2023-05-02T09:19:28.768Z,42.40
2023-05-02T09:24:32.841Z,42.33
2023-05-02T09:29:36.537Z,42.52
2023-05-02T09:34:42.380Z,42.78
2023-05-02T09:40:06.735Z,43.03
2023-05-02T09:45:20.856Z,43.10
2023-05-02T09:50:38.097Z,42.82
2023-05-02T09:55:43.711Z,42.87
2023-05-02T10:00:47.034Z,42.87
2023-05-02T10:05:51.086Z,42.95
2023-05-02T10:10:56.782Z,43.10
2023-05-02T10:16:05.311Z,43.22
2023-05-02T10:25:19.652Z,42.11
2023-05-02T10:30:24.390Z,42.00
2023-05-02T10:35:31.858Z,41.37
2023-05-02T10:40:42.763Z,41.08
2023-05-02T10:45:45.995Z,40.56
2023-05-02T11:25:31.795Z,37.31
2023-05-02T11:30:37.706Z,36.85
2023-05-02T11:35:43.664Z,36.29
2023-05-02T11:40:55.182Z,36.83
2023-05-02T11:46:00.470Z,37.22
2023-05-02T11:51:07.514Z,37.18
2023-05-02T11:56:10.952Z,37.88
2023-05-02T12:01:16.449Z,38.38
2023-05-02T12:06:20.500Z,38.32
2023-05-02T12:11:24.260Z,38.16
2023-05-02T12:16:27.601Z,37.87
2023-05-02T12:21:33.786Z,36.90
2023-05-02T12:26:37.022Z,36.29
2023-05-02T12:31:40.738Z,35.89
2023-05-02T12:36:45.603Z,35.73
2023-05-02T12:41:54.263Z,35.24
2023-05-02T12:47:01.592Z,35.57
2023-05-02T12:52:05.276Z,35.88
2023-05-02T12:57:08.894Z,35.99
2023-05-02T13:02:12.972Z,36.27
2023-05-02T13:07:16.143Z,36.52
2023-05-02T13:12:19.340Z,36.52
2023-05-02T13:17:22.813Z,36.63
2023-05-02T13:22:26.708Z,37.13
2023-05-02T13:27:29.919Z,38.66
2023-05-02T13:32:33.127Z,41.37
2023-05-02T13:37:36.350Z,43.10
2023-05-02T13:42:39.346Z,48.19
2023-05-02T13:47:42.407Z,50.89
2023-05-02T13:52:47.726Z,51.43
2023-05-02T13:57:52.013Z,50.98
2023-05-02T14:02:55.774Z,54.62
2023-05-02T14:07:58.899Z,57.10
2023-05-02T14:13:02.068Z,59.60
2023-05-02T14:18:05.147Z,59.39
2023-05-02T14:23:08.550Z,59.70
2023-05-02T14:28:12.136Z,60.75
2023-05-02T14:33:15.505Z,66.15
2023-05-02T14:38:18.509Z,63.52
2023-05-02T14:43:21.683Z,56.65
2023-05-02T14:48:25.004Z,56.61
2023-05-02T14:53:28.175Z,57.80
2023-05-02T14:58:31.195Z,59.47
2023-05-02T15:03:36.378Z,60.57
2023-05-02T15:08:45.040Z,60.31
2023-05-02T15:13:48.047Z,60.30
2023-05-02T15:18:51.123Z,66.84
2023-05-02T15:23:54.166Z,65.27
2023-05-02T15:28:57.756Z,58.99
2023-05-02T15:34:00.789Z,57.71
2023-05-02T15:39:07.332Z,58.35
2023-05-02T15:44:11.076Z,59.16
2023-05-02T15:49:14.363Z,60.29
2023-05-02T15:54:17.435Z,62.12
2023-05-02T15:59:21.041Z,68.51
2023-05-02T16:04:25.366Z,65.34
2023-05-02T16:09:31.374Z,58.20
2023-05-02T16:14:34.940Z,58.01
2023-05-02T16:19:38.088Z,59.54
2023-05-02T16:24:41.437Z,60.74
2023-05-02T16:29:44.397Z,61.54
2023-05-02T16:34:47.356Z,67.32
2023-05-02T16:39:50.599Z,64.37
2023-05-02T16:44:53.712Z,57.65
2023-05-02T16:49:58.544Z,57.61
2023-05-02T16:55:01.623Z,58.73
2023-05-02T17:00:05.684Z,60.45
2023-05-02T17:05:10.802Z,61.03
2023-05-02T17:10:13.778Z,67.56
2023-05-02T17:15:16.862Z,62.64
2023-05-02T17:20:20.670Z,56.04
2023-05-02T17:25:28.168Z,57.03
2023-05-02T17:30:34.105Z,58.92
2023-05-02T17:35:37.184Z,60.20
2023-05-02T17:40:40.500Z,60.76
2023-05-02T17:45:45.082Z,67.31
2023-05-02T17:50:50.157Z,63.83
2023-05-02T17:55:53.289Z,57.20
2023-05-02T18:00:57.014Z,58.05
2023-05-02T18:05:59.945Z,60.13
2023-05-02T18:11:03.627Z,61.95
2023-05-02T18:16:06.866Z,67.20
2023-05-02T18:21:10.546Z,62.10
2023-05-02T18:26:14.192Z,56.38
2023-05-02T18:31:17.965Z,57.16
2023-05-02T18:36:26.186Z,59.31
2023-05-02T18:41:29.400Z,60.26
2023-05-02T18:46:32.446Z,66.06
2023-05-02T18:51:35.843Z,62.61
2023-05-02T18:56:38.825Z,56.58
2023-05-02T19:01:41.808Z,57.32
2023-05-02T19:06:45.306Z,59.37
2023-05-02T19:11:48.410Z,60.97
2023-05-02T19:16:51.578Z,66.41
2023-05-02T19:21:54.530Z,61.59
2023-05-02T19:26:57.948Z,54.60
2023-05-02T19:32:01.146Z,54.59
2023-05-02T19:37:04.447Z,56.03
2023-05-02T19:42:07.628Z,57.27
2023-05-02T19:47:11.174Z,57.99
2023-05-02T19:52:14.137Z,59.14
2023-05-02T19:57:18.020Z,60.34
2023-05-02T20:02:21.975Z,66.91
2023-05-02T20:07:24.993Z,62.54
2023-05-02T20:12:27.971Z,55.23
2023-05-02T20:25:34.415Z,56.94
2023-05-02T20:30:39.232Z,58.53
2023-05-02T20:35:42.285Z,59.78
2023-05-02T20:40:45.791Z,60.70
2023-05-02T20:45:49.134Z,67.20
2023-05-02T20:50:55.188Z,62.90
2023-05-02T20:55:58.209Z,55.61
2023-05-02T21:01:01.278Z,55.65
2023-05-02T21:06:04.505Z,57.41
2023-05-02T21:11:14.674Z,58.63
2023-05-02T21:16:19.131Z,59.22
2023-05-02T21:21:22.962Z,60.89
2023-05-02T21:26:26.370Z,67.41
2023-05-02T21:31:30.193Z,62.58
2023-05-02T21:36:33.256Z,55.53
2023-05-02T21:41:36.820Z,55.66
2023-05-02T21:46:41.074Z,57.74
2023-05-02T21:51:44.234Z,59.22
2023-05-02T21:56:47.248Z,60.47
2023-05-02T22:01:50.586Z,67.43
2023-05-02T22:06:53.969Z,61.23
2023-05-02T22:11:58.069Z,53.77
2023-05-02T22:17:04.881Z,55.16
2023-05-02T22:22:08.150Z,56.65
2023-05-02T22:27:11.151Z,58.29
2023-05-02T22:32:14.169Z,59.45
2023-05-02T22:37:17.320Z,60.43
2023-05-02T22:42:20.882Z,67.78
2023-05-02T22:47:23.943Z,60.33
2023-05-02T22:52:30.120Z,53.97
2023-05-02T22:57:33.163Z,55.34
2023-05-02T23:02:36.923Z,57.72
2023-05-02T23:07:40.317Z,58.68
2023-05-02T23:12:43.528Z,59.85
2023-05-02T23:17:46.600Z,67.47
2023-05-02T23:25:30.442Z,55.44
2023-05-02T23:30:33.814Z,55.33
2023-05-02T23:35:37.137Z,57.07
2023-05-02T23:40:40.123Z,58.46
2023-05-02T23:45:43.247Z,60.05
2023-05-02T23:50:46.400Z,67.31
2023-05-02T23:55:49.479Z,59.58
